createdAt,value
2022-11-18T00:01:35.739Z,3.58
2022-11-18T00:04:41.685Z,3.48
2022-11-18T00:07:47.928Z,3.42
2022-11-18T00:10:53.788Z,3.37
2022-11-18T00:14:18.401Z,3.31
2022-11-18T00:17:23.929Z,3.30
2022-11-18T00:20:28.907Z,3.17
2022-11-18T00:23:35.247Z,3.24
2022-11-18T00:26:43.453Z,2.98
2022-11-18T00:29:48.688Z,2.87
2022-11-18T00:32:54.409Z,2.42
2022-11-18T00:36:00.817Z,2.10
2022-11-18T00:39:06.314Z,2.26
2022-11-18T00:42:30.265Z,1.94
2022-11-18T00:45:37.062Z,1.90
2022-11-18T00:48:42.142Z,1.70
2022-11-18T00:51:47.927Z,1.97
2022-11-18T00:54:55.045Z,1.48
2022-11-18T00:58:02.909Z,1.18
2022-11-18T01:01:08.619Z,1.87
2022-11-18T01:04:00.191Z,1.95
2022-11-18T01:07:06.054Z,1.79
2022-11-18T01:10:12.616Z,1.10
2022-11-18T01:13:30.660Z,1.08
2022-11-18T01:16:39.612Z,1.30
2022-11-18T01:19:45.548Z,1.51
2022-11-18T01:22:51.026Z,1.00
2022-11-18T01:25:57.846Z,1.65
2022-11-18T01:29:04.284Z,2.04
2022-11-18T01:32:24.010Z,1.77
2022-11-18T01:35:17.611Z,0.44
2022-11-18T01:38:25.451Z,0.39
2022-11-18T01:41:31.980Z,0.18
2022-11-18T01:45:12.564Z,0.42
2022-11-18T01:48:46.307Z,0.86
2022-11-18T01:52:06.424Z,0.63
2022-11-18T01:55:11.417Z,1.14
2022-11-18T01:58:25.101Z,1.18
2022-11-18T02:01:30.424Z,1.04
2022-11-18T02:04:37.293Z,1.02
2022-11-18T02:07:43.912Z,1.42
2022-11-18T02:10:50.176Z,1.52
2022-11-18T02:13:56.197Z,1.42
2022-11-18T02:17:29.691Z,1.50
2022-11-18T02:20:44.674Z,1.49
2022-11-18T02:24:11.451Z,1.66
2022-11-18T02:27:23.093Z,1.79
2022-11-18T02:30:23.730Z,1.52
2022-11-18T02:33:39.139Z,1.43
2022-11-18T02:36:53.177Z,1.48
2022-11-18T02:40:04.338Z,1.43
2022-11-18T02:43:42.387Z,1.51
2022-11-18T02:46:49.850Z,1.51
2022-11-18T02:50:01.525Z,1.64
2022-11-18T02:53:09.506Z,1.26
2022-11-18T02:56:07.882Z,1.21
2022-11-18T02:59:14.089Z,1.48
2022-11-18T03:02:19.524Z,1.61
2022-11-18T03:05:42.618Z,0.92
2022-11-18T03:08:53.199Z,1.01
2022-11-18T03:12:22.966Z,1.14
2022-11-18T03:15:39.764Z,0.99
2022-11-18T03:18:55.777Z,1.11
2022-11-18T03:22:20.982Z,1.15
2022-11-18T03:25:51.836Z,1.08
2022-11-18T03:29:20.951Z,1.09
2022-11-18T03:32:33.476Z,1.03
2022-11-18T03:35:34.885Z,0.99
2022-11-18T03:38:43.745Z,1.21
2022-11-18T03:41:53.108Z,0.98
2022-11-18T03:45:02.809Z,1.00
2022-11-18T03:48:21.455Z,0.76
2022-11-18T03:51:17.229Z,1.19
2022-11-18T03:54:14.719Z,1.23
2022-11-18T03:57:12.146Z,1.49
2022-11-18T04:00:09.528Z,1.69
2022-11-18T04:02:56.546Z,1.75
2022-11-18T04:05:51.360Z,1.74
2022-11-18T04:08:41.741Z,1.67
2022-11-18T04:12:01.094Z,1.91
2022-11-18T04:15:02.548Z,1.74
2022-11-18T04:18:07.509Z,1.89
2022-11-18T04:21:13.196Z,1.78
2022-11-18T07:43:20.811Z,0.48
2022-11-18T07:46:36.869Z,0.76
2022-11-18T07:49:42.132Z,0.65
2022-11-18T07:52:48.979Z,0.62
2022-11-18T07:55:57.516Z,0.80
2022-11-18T07:59:02.572Z,0.99
2022-11-18T08:02:08.821Z,1.05
2022-11-18T08:05:17.947Z,1.02
2022-11-18T08:08:21.864Z,1.05
2022-11-18T08:11:29.958Z,1.18
2022-11-18T08:14:37.035Z,1.19
2022-11-18T08:17:44.418Z,1.28
2022-11-18T08:20:51.390Z,1.30
2022-11-18T08:23:58.205Z,1.34
2022-11-18T08:27:03.475Z,1.34
2022-11-18T08:30:08.805Z,1.41
2022-11-18T08:33:13.666Z,1.42
2022-11-18T08:36:28.989Z,1.44
2022-11-18T08:39:35.891Z,1.45
2022-11-18T08:42:41.681Z,1.50
2022-11-18T08:45:48.691Z,1.66
2022-11-18T08:48:54.526Z,1.67
2022-11-18T08:51:59.267Z,1.82
2022-11-18T08:55:05.757Z,1.87
2022-11-18T08:58:11.984Z,1.70
2022-11-18T09:01:21.224Z,1.62
2022-11-18T09:04:26.168Z,1.69
2022-11-18T09:07:33.446Z,1.81
2022-11-18T09:10:40.764Z,1.85
2022-11-18T09:14:39.015Z,1.96
2022-11-18T09:16:53.492Z,2.09
2022-11-18T09:19:59.015Z,2.27
2022-11-18T09:23:04.630Z,2.36
2022-11-18T09:26:21.475Z,2.36
2022-11-18T09:29:29.254Z,2.40
2022-11-18T09:32:34.721Z,2.19
2022-11-18T09:35:40.695Z,2.06
2022-11-18T09:38:52.937Z,2.01
2022-11-18T09:42:07.858Z,1.97
2022-11-18T09:45:32.273Z,1.96
2022-11-18T09:48:57.419Z,1.90
2022-11-18T09:52:04.974Z,1.94
2022-11-18T09:55:10.466Z,1.88
2022-11-18T09:58:16.713Z,1.89
2022-11-18T10:01:31.305Z,1.86
2022-11-18T10:04:37.361Z,2.03
2022-11-18T10:07:59.575Z,2.02
2022-11-18T10:11:37.296Z,1.97
2022-11-18T10:15:08.522Z,1.98
2022-11-18T10:19:04.326Z,1.98
2022-11-18T10:25:18.375Z,1.88
2022-11-18T10:28:39.580Z,2.08
2022-11-18T10:31:45.554Z,1.98
2022-11-18T10:34:51.637Z,1.92
2022-11-18T10:38:12.217Z,2.03
2022-11-18T10:41:10.776Z,2.22
2022-11-18T10:44:11.894Z,2.13
2022-11-18T10:47:42.173Z,2.07
2022-11-18T10:50:56.213Z,2.08
2022-11-18T10:54:01.318Z,2.23
2022-11-18T10:57:11.989Z,2.39
2022-11-18T11:00:15.294Z,2.21
2022-11-18T11:03:43.590Z,2.26
2022-11-18T11:06:52.226Z,2.24
2022-11-18T11:09:57.657Z,2.40
2022-11-18T11:13:13.755Z,2.53
2022-11-18T11:16:24.891Z,2.37
2022-11-18T11:19:27.472Z,2.28
2022-11-18T11:22:33.079Z,2.48
2022-11-18T11:29:31.558Z,2.40
2022-11-18T11:33:03.079Z,2.34
2022-11-18T11:36:35.192Z,2.47
2022-11-18T11:39:53.988Z,2.43
2022-11-18T11:43:29.877Z,2.29
2022-11-18T11:47:30.252Z,2.22
2022-11-18T11:51:05.439Z,2.24
2022-11-18T11:54:42.589Z,2.24
2022-11-18T11:58:20.724Z,2.27
2022-11-18T12:01:50.550Z,2.34
2022-11-18T12:05:12.240Z,2.47
2022-11-18T12:08:31.896Z,2.88
2022-11-18T12:12:21.068Z,2.83
2022-11-18T12:16:00.747Z,2.77
2022-11-18T12:19:22.681Z,2.57
2022-11-18T12:22:28.226Z,2.63
2022-11-18T12:26:03.895Z,2.87
2022-11-18T12:29:10.105Z,3.00
2022-11-18T12:32:14.640Z,2.75
2022-11-18T12:35:25.845Z,2.67
2022-11-18T12:38:45.824Z,2.80
2022-11-18T12:42:31.514Z,2.91
2022-11-18T12:46:00.809Z,2.87
2022-11-18T12:49:06.214Z,2.84
2022-11-18T12:52:22.120Z,2.69
2022-11-18T12:55:41.645Z,2.67
2022-11-18T12:58:47.433Z,2.74
2022-11-18T13:01:53.499Z,3.00
2022-11-18T13:04:59.440Z,3.26
2022-11-18T13:08:27.072Z,3.36
2022-11-18T13:11:50.173Z,3.36
2022-11-18T16:28:29.700Z,1.77
2022-11-18T16:55:00.012Z,1.39
2022-11-18T16:58:05.960Z,1.33
2022-11-18T17:01:23.480Z,1.43
2022-11-18T17:04:20.040Z,1.57
2022-11-18T17:07:25.994Z,1.51
2022-11-18T17:10:32.203Z,1.47
2022-11-18T17:13:38.841Z,1.65
2022-11-18T17:16:45.140Z,1.65
2022-11-18T17:19:51.325Z,1.68
2022-11-18T17:22:57.219Z,1.68
2022-11-18T17:26:02.934Z,1.65
2022-11-18T17:29:11.766Z,1.76
2022-11-18T17:32:17.348Z,1.67
2022-11-18T17:35:25.281Z,1.67
2022-11-18T17:38:31.758Z,1.70
2022-11-18T17:41:56.688Z,1.88
2022-11-18T17:45:02.702Z,1.79
2022-11-18T17:48:08.760Z,1.76
2022-11-18T17:51:19.810Z,1.76
2022-11-18T17:54:25.412Z,1.74
2022-11-18T17:57:31.101Z,1.79
2022-11-18T18:00:38.472Z,1.67
2022-11-18T18:03:45.010Z,1.76
2022-11-18T18:06:50.065Z,1.92
2022-11-18T18:09:56.151Z,2.13
2022-11-18T18:13:20.902Z,2.12
2022-11-18T18:16:30.206Z,2.10
2022-11-18T18:19:37.512Z,2.05
2022-11-18T18:22:43.630Z,1.87
2022-11-18T18:25:49.550Z,2.20
2022-11-18T18:28:55.847Z,2.18
2022-11-18T18:32:01.445Z,2.02
2022-11-18T18:35:07.250Z,1.97
2022-11-18T18:38:12.955Z,2.15
2022-11-18T18:41:24.051Z,2.19
2022-11-18T18:44:29.890Z,2.19
2022-11-18T18:47:35.372Z,2.08
2022-11-18T18:50:41.443Z,2.00
2022-11-18T18:53:49.167Z,1.93
2022-11-18T18:56:58.598Z,1.64
2022-11-18T19:00:03.927Z,1.74
2022-11-18T19:03:11.241Z,1.55
2022-11-18T19:06:54.891Z,1.59
2022-11-18T19:09:41.258Z,1.62
2022-11-18T19:12:54.178Z,1.74
2022-11-18T19:15:59.703Z,1.82
2022-11-18T19:19:06.486Z,1.85
2022-11-18T19:22:12.070Z,1.85
2022-11-18T19:25:17.714Z,2.02
2022-11-18T19:28:25.141Z,1.94
2022-11-18T19:35:16.646Z,1.99
2022-11-18T19:38:22.511Z,1.76
2022-11-18T19:41:28.453Z,1.77
2022-11-18T19:44:34.035Z,2.11
2022-11-18T19:47:39.334Z,1.95
2022-11-18T19:50:45.154Z,2.03
2022-11-18T19:53:51.369Z,2.05
2022-11-18T19:56:57.667Z,2.06
2022-11-18T20:00:03.590Z,2.22
2022-11-18T20:03:09.081Z,2.16
2022-11-18T20:09:08.356Z,1.81
2022-11-18T20:12:14.057Z,1.78
2022-11-18T20:15:20.811Z,1.99
2022-11-18T20:18:28.032Z,2.34
2022-11-18T20:21:35.228Z,2.10
2022-11-18T20:24:40.806Z,2.15
2022-11-18T20:27:46.144Z,2.12
2022-11-18T20:30:52.022Z,2.23
2022-11-18T20:34:00.387Z,2.15
2022-11-18T20:37:05.957Z,2.21
2022-11-18T20:40:11.286Z,2.32
2022-11-18T20:43:22.490Z,2.49
2022-11-18T20:50:04.629Z,2.21
2022-11-18T20:53:10.157Z,2.23
2022-11-18T20:56:15.693Z,2.13
2022-11-18T20:59:21.616Z,2.28
2022-11-18T21:02:27.443Z,2.39
2022-11-18T21:05:32.748Z,2.43
2022-11-18T21:08:39.356Z,2.42
2022-11-18T21:11:47.434Z,2.08
2022-11-18T21:14:55.616Z,2.22
2022-11-18T21:18:01.187Z,2.12
2022-11-18T21:21:25.303Z,2.64
2022-11-18T21:24:36.833Z,2.49
2022-11-18T21:27:42.242Z,2.68
2022-11-18T21:30:48.078Z,2.54
2022-11-18T21:33:54.280Z,2.25
2022-11-18T21:37:00.115Z,2.12
2022-11-18T21:40:05.552Z,2.02
2022-11-18T21:43:11.295Z,2.37
2022-11-18T21:46:25.544Z,2.07
2022-11-18T21:49:30.990Z,2.18
2022-11-18T21:52:36.497Z,2.40
2022-11-18T21:55:42.266Z,1.79
2022-11-18T21:58:47.171Z,2.10
2022-11-18T22:01:52.059Z,2.24
2022-11-18T22:05:01.550Z,2.41
2022-11-18T22:08:06.855Z,2.13
2022-11-18T22:11:14.461Z,1.97
2022-11-18T22:14:19.895Z,2.02
